createdAt,value
2022-12-28T00:01:23.261Z,21.75
2022-12-28T00:03:50.116Z,20.73
2022-12-28T00:06:17.320Z,19.40
2022-12-28T00:08:44.360Z,21.50
2022-12-28T00:11:28.277Z,21.75
2022-12-28T00:13:59.298Z,24.48
2022-12-28T00:16:30.146Z,30.70
2022-12-28T00:18:58.471Z,38.20
2022-12-28T00:21:25.473Z,33.83
2022-12-28T00:23:52.785Z,30.35
2022-12-28T00:26:19.920Z,27.90
2022-12-28T00:28:47.352Z,21.45
2022-12-28T00:31:14.341Z,21.33
2022-12-28T00:33:41.221Z,21.85
2022-12-28T00:36:09.583Z,21.40
2022-12-28T00:38:38.225Z,22.67
2022-12-28T00:41:05.613Z,17.33
2022-12-28T00:43:32.412Z,8.90
2022-12-28T00:45:59.416Z,22.33
2022-12-28T00:48:26.234Z,19.33
2022-12-28T00:50:53.063Z,17.20
2022-12-28T00:53:19.924Z,18.83
2022-12-28T00:55:46.706Z,17.45
2022-12-28T00:58:14.695Z,13.73
2022-12-28T01:00:41.542Z,13.43
2022-12-28T01:03:08.422Z,12.75
2022-12-28T01:05:38.083Z,12.77
2022-12-28T01:08:05.029Z,14.68
2022-12-28T01:10:31.828Z,14.82
2022-12-28T01:12:58.664Z,14.02
2022-12-28T01:15:25.596Z,14.10
2022-12-28T01:17:52.485Z,14.98
2022-12-28T01:20:19.374Z,13.40
2022-12-28T01:22:46.149Z,12.88
2022-12-28T01:25:13.733Z,21.63
2022-12-28T01:27:40.537Z,27.73
2022-12-28T01:30:08.285Z,38.20
2022-12-28T01:32:35.082Z,43.07
2022-12-28T01:35:01.806Z,34.27
2022-12-28T01:37:28.624Z,38.03
2022-12-28T01:39:55.558Z,29.13
2022-12-28T01:42:22.610Z,24.40
2022-12-28T01:44:50.383Z,24.27
2022-12-28T01:47:25.937Z,25.23
2022-12-28T01:50:02.205Z,26.73
2022-12-28T01:52:44.956Z,27.13
2022-12-28T01:55:14.968Z,27.87
2022-12-28T01:57:54.225Z,26.53
2022-12-28T02:00:21.107Z,27.53
2022-12-28T02:02:50.815Z,31.40
2022-12-28T02:05:17.689Z,28.30
2022-12-28T02:07:56.081Z,20.23
2022-12-28T02:10:42.804Z,13.97
2022-12-28T02:13:09.950Z,9.80
2022-12-28T02:15:36.798Z,10.37
2022-12-28T02:18:03.664Z,11.40
2022-12-28T02:20:40.121Z,9.07
2022-12-28T02:23:28.063Z,11.70
2022-12-28T02:26:32.139Z,20.00
2022-12-28T02:29:28.249Z,12.57
2022-12-28T02:31:55.072Z,14.75
2022-12-28T02:34:26.048Z,14.27
2022-12-28T02:39:23.991Z,25.37
2022-12-28T02:41:50.800Z,25.38
2022-12-28T02:44:37.627Z,21.05
2022-12-28T02:47:23.199Z,17.00
2022-12-28T02:50:08.178Z,24.00
2022-12-28T02:53:11.117Z,21.50
2022-12-28T02:56:00.745Z,21.00
2022-12-28T02:58:57.061Z,20.57
2022-12-28T03:01:48.489Z,20.90
2022-12-28T03:04:47.824Z,25.33
2022-12-28T03:07:36.933Z,17.70
2022-12-28T03:10:16.060Z,12.80
2022-12-28T03:13:27.712Z,13.10
2022-12-28T03:15:54.561Z,11.35
2022-12-28T03:18:40.017Z,10.97
2022-12-28T03:21:26.886Z,11.40
2022-12-28T03:24:12.243Z,13.40
2022-12-28T03:27:00.001Z,9.83
2022-12-28T03:29:45.181Z,14.37
2022-12-28T03:32:11.940Z,13.17
2022-12-28T03:34:38.727Z,15.10
2022-12-28T03:37:14.884Z,17.40
2022-12-28T03:39:49.286Z,10.17
2022-12-28T03:42:53.838Z,10.20
2022-12-28T03:45:44.298Z,13.73
2022-12-28T03:48:07.437Z,14.53
2022-12-28T03:50:38.799Z,10.33
2022-12-28T03:53:05.579Z,12.40
2022-12-28T03:55:32.425Z,14.27
2022-12-28T03:57:59.189Z,13.20
2022-12-28T04:00:25.967Z,19.23
2022-12-28T04:02:52.918Z,22.57
2022-12-28T04:05:21.391Z,19.63
2022-12-28T04:07:48.463Z,23.33
2022-12-28T04:10:15.285Z,15.53
2022-12-28T04:12:42.122Z,16.13
2022-12-28T04:15:09.233Z,15.87
2022-12-28T04:17:36.079Z,13.97
2022-12-28T04:20:03.071Z,15.70
2022-12-28T04:22:29.833Z,14.27
2022-12-28T04:24:56.587Z,12.93
2022-12-28T04:27:24.231Z,14.83
2022-12-28T04:29:51.090Z,11.60
2022-12-28T04:32:17.972Z,12.57
2022-12-28T04:34:48.371Z,11.73
2022-12-28T04:37:15.629Z,15.88
2022-12-28T04:39:56.115Z,15.53
2022-12-28T04:42:25.390Z,12.63
2022-12-28T04:44:52.191Z,16.13
2022-12-28T04:47:19.023Z,13.50
2022-12-28T04:49:45.903Z,14.77
2022-12-28T04:52:12.840Z,16.93
2022-12-28T04:54:39.632Z,19.23
2022-12-28T04:57:06.918Z,21.47
2022-12-28T04:59:33.861Z,20.77
2022-12-28T05:02:00.837Z,21.93
2022-12-28T05:04:27.707Z,19.60
2022-12-28T05:06:54.549Z,20.50
2022-12-28T05:09:21.424Z,15.60
2022-12-28T05:11:48.213Z,20.60
2022-12-28T05:14:15.095Z,22.47
2022-12-28T05:16:42.244Z,33.70
2022-12-28T05:19:09.109Z,33.00
2022-12-28T05:21:35.933Z,23.03
2022-12-28T05:24:02.783Z,23.53
2022-12-28T05:26:29.747Z,30.53
2022-12-28T05:28:56.929Z,23.83
2022-12-28T05:31:24.453Z,20.93
2022-12-28T05:33:51.564Z,25.37
2022-12-28T05:36:19.841Z,23.30
2022-12-28T05:38:46.795Z,23.43
2022-12-28T05:41:22.068Z,27.20
2022-12-28T05:43:48.903Z,35.40
2022-12-28T05:46:19.376Z,34.47
2022-12-28T05:48:46.466Z,38.85
2022-12-28T05:51:15.236Z,42.03
2022-12-28T05:53:42.277Z,30.47
2022-12-28T05:56:14.446Z,22.80
2022-12-28T05:58:42.610Z,17.80
2022-12-28T06:01:14.479Z,19.87
2022-12-28T06:03:41.485Z,18.20
2022-12-28T06:06:15.982Z,25.83
2022-12-28T06:08:43.316Z,19.53
2022-12-28T06:11:18.611Z,15.33
2022-12-28T06:13:45.588Z,16.27
2022-12-28T06:16:16.264Z,15.70
2022-12-28T06:18:43.215Z,17.52
2022-12-28T06:21:29.509Z,14.60
2022-12-28T06:23:57.799Z,14.70
2022-12-28T06:26:24.712Z,16.37
2022-12-28T06:28:51.503Z,16.50
2022-12-28T06:31:25.668Z,19.03
2022-12-28T06:33:57.099Z,27.67
2022-12-28T06:36:32.376Z,26.40
2022-12-28T06:38:59.772Z,17.37
2022-12-28T06:41:26.956Z,16.90
2022-12-28T06:43:54.173Z,15.57
2022-12-28T06:46:21.964Z,18.47
2022-12-28T06:48:48.892Z,17.40
2022-12-28T06:51:20.148Z,20.27
2022-12-28T06:53:47.282Z,19.00
2022-12-28T06:56:15.265Z,21.83
2022-12-28T06:58:42.175Z,26.40
2022-12-28T07:01:17.234Z,28.53
2022-12-28T07:03:44.661Z,26.83
2022-12-28T07:06:11.740Z,24.97
2022-12-28T07:08:40.303Z,23.97
2022-12-28T07:11:11.848Z,23.97
2022-12-28T07:13:38.709Z,25.92
2022-12-28T07:16:15.904Z,24.38
2022-12-28T07:18:42.748Z,30.27
2022-12-28T07:21:12.000Z,29.60
2022-12-28T07:23:38.944Z,35.60
2022-12-28T07:26:13.470Z,28.17
2022-12-28T07:28:41.180Z,25.48
2022-12-28T07:31:08.843Z,21.10
2022-12-28T07:33:35.924Z,17.08
2022-12-28T07:36:03.886Z,15.23
2022-12-28T07:38:30.618Z,15.05
2022-12-28T07:41:21.404Z,15.55
2022-12-28T07:43:48.299Z,11.30
2022-12-28T07:46:15.910Z,12.40
2022-12-28T07:48:43.263Z,13.55
2022-12-28T07:51:20.003Z,15.15
2022-12-28T07:53:47.803Z,13.98
2022-12-28T07:56:14.782Z,13.30
2022-12-28T08:01:10.976Z,13.82
2022-12-28T08:03:38.150Z,14.63
2022-12-28T08:06:15.852Z,16.00
2022-12-28T08:08:44.031Z,15.95
2022-12-28T08:11:16.098Z,20.35
2022-12-28T08:13:44.335Z,16.27
2022-12-28T08:16:12.449Z,30.63
2022-12-28T08:18:40.309Z,270.35
2022-12-28T08:21:15.169Z,44.80
2022-12-28T08:23:42.303Z,25.70
2022-12-28T08:26:09.089Z,25.95
2022-12-28T08:28:35.937Z,19.98
2022-12-28T08:31:09.994Z,15.95
2022-12-28T08:33:36.884Z,15.43
2022-12-28T08:36:07.421Z,18.20
2022-12-28T08:41:02.198Z,21.05
2022-12-28T08:43:29.147Z,20.88
2022-12-28T08:46:00.329Z,13.43
2022-12-28T08:48:27.254Z,11.77
2022-12-28T08:50:54.196Z,12.48
2022-12-28T08:53:24.144Z,17.58
2022-12-28T08:55:51.593Z,19.52
2022-12-28T08:58:18.595Z,15.95
2022-12-28T09:00:45.413Z,15.88
2022-12-28T09:03:12.305Z,20.00
2022-12-28T09:05:39.965Z,21.88
2022-12-28T09:08:06.846Z,23.63
2022-12-28T09:10:33.626Z,22.70
2022-12-28T09:13:00.438Z,19.20
2022-12-28T09:15:27.267Z,19.48
2022-12-28T09:17:54.044Z,16.65
2022-12-28T09:20:20.909Z,13.43
2022-12-28T09:22:47.793Z,7.38
2022-12-28T09:25:14.696Z,13.15
2022-12-28T09:27:41.532Z,13.07
2022-12-28T09:30:08.987Z,17.85
2022-12-28T09:32:35.830Z,14.43
2022-12-28T09:35:02.686Z,16.30
2022-12-28T09:37:29.475Z,12.73
2022-12-28T09:40:01.149Z,16.35
2022-12-28T09:42:29.030Z,17.15
2022-12-28T09:45:04.199Z,15.80
2022-12-28T09:47:40.230Z,15.93
2022-12-28T09:50:16.555Z,15.75
2022-12-28T09:52:53.199Z,16.77
2022-12-28T09:55:20.058Z,20.85
2022-12-28T09:57:51.112Z,19.05
2022-12-28T10:00:23.766Z,18.88
2022-12-28T10:03:04.413Z,23.65
2022-12-28T10:05:31.366Z,22.27
2022-12-28T10:07:58.526Z,20.85
2022-12-28T10:10:25.293Z,25.90
2022-12-28T10:12:52.260Z,22.42
2022-12-28T10:15:19.259Z,21.92
2022-12-28T10:17:46.034Z,24.70
2022-12-28T10:20:20.594Z,26.00
2022-12-28T10:22:54.238Z,25.55
2022-12-28T10:25:23.213Z,31.80
2022-12-28T10:27:50.115Z,25.67
2022-12-28T10:30:19.865Z,26.67
2022-12-28T10:32:51.933Z,26.40
2022-12-28T10:35:26.855Z,38.35
2022-12-28T10:38:15.561Z,40.97
2022-12-28T10:40:45.043Z,32.85
2022-12-28T10:43:19.153Z,32.33
2022-12-28T10:45:48.394Z,34.80
2022-12-28T10:48:18.428Z,36.75
2022-12-28T10:50:58.813Z,40.55
2022-12-28T10:53:29.707Z,50.78
2022-12-28T10:56:14.866Z,60.33
2022-12-28T10:58:45.718Z,68.68
2022-12-28T11:01:12.628Z,66.13
2022-12-28T11:04:06.818Z,74.82
2022-12-28T11:06:36.103Z,57.85
2022-12-28T11:09:24.530Z,54.28
2022-12-28T11:11:52.419Z,60.63
2022-12-28T11:14:26.901Z,52.33
2022-12-28T11:16:53.792Z,50.15
2022-12-28T11:19:20.999Z,51.65
2022-12-28T11:21:49.060Z,52.60
2022-12-28T11:24:16.826Z,55.55
2022-12-28T11:26:45.128Z,56.70
2022-12-28T11:29:13.948Z,47.75
2022-12-28T11:31:46.717Z,55.22
2022-12-28T11:34:17.754Z,55.72
2022-12-28T11:36:44.550Z,57.15
2022-12-28T11:39:26.446Z,64.78
2022-12-28T11:42:19.471Z,59.28
2022-12-28T11:44:40.961Z,61.72
2022-12-28T11:47:16.504Z,52.63
2022-12-28T11:49:44.361Z,54.30
2022-12-28T11:52:17.496Z,48.08
2022-12-28T11:54:53.350Z,42.78
2022-12-28T11:57:39.099Z,44.80
2022-12-28T12:00:23.107Z,43.53
2022-12-28T12:02:56.593Z,47.00
2022-12-28T12:05:38.735Z,52.92
2022-12-28T12:08:14.064Z,49.50
2022-12-28T12:10:42.562Z,41.28
2022-12-28T12:13:27.813Z,40.97
2022-12-28T12:16:05.384Z,47.28
2022-12-28T12:18:38.535Z,152.95
2022-12-28T12:21:13.340Z,67.88
2022-12-28T12:23:52.402Z,42.95
2022-12-28T12:26:39.466Z,37.08
2022-12-28T12:29:24.762Z,40.67
2022-12-28T12:32:02.903Z,32.38
2022-12-28T12:34:42.796Z,31.73
2022-12-28T12:37:35.626Z,32.17
2022-12-28T12:40:27.117Z,49.50
2022-12-28T12:43:24.659Z,29.70
2022-12-28T12:46:03.439Z,33.45
2022-12-28T12:48:33.108Z,32.08
2022-12-28T12:51:11.629Z,27.73
2022-12-28T12:54:23.634Z,32.60
2022-12-28T12:56:58.330Z,31.20
2022-12-28T12:59:28.037Z,29.30
2022-12-28T13:02:16.446Z,33.78
2022-12-28T13:04:44.653Z,27.73
2022-12-28T13:07:20.549Z,34.15
2022-12-28T13:09:47.300Z,34.70
2022-12-28T13:12:18.121Z,34.50
2022-12-28T13:14:49.002Z,49.42
2022-12-28T13:19:46.877Z,45.22
2022-12-28T13:22:30.702Z,40.70
2022-12-28T13:24:59.094Z,32.15
2022-12-28T13:27:34.193Z,90.10
2022-12-28T13:30:01.229Z,152.63
2022-12-28T13:32:32.770Z,71.65
2022-12-28T13:35:03.057Z,32.25
2022-12-28T13:37:30.628Z,34.40
2022-12-28T13:40:11.033Z,30.67
2022-12-28T13:43:00.949Z,25.45
2022-12-28T13:45:27.765Z,39.67
2022-12-28T13:47:54.530Z,28.33
2022-12-28T13:50:26.747Z,32.08
2022-12-28T13:52:58.259Z,33.30
2022-12-28T13:55:27.576Z,27.70
2022-12-28T13:57:59.916Z,39.30
2022-12-28T14:00:26.910Z,28.05
2022-12-28T14:02:54.481Z,41.22
2022-12-28T14:05:22.957Z,38.33
2022-12-28T14:07:49.998Z,49.80
2022-12-28T14:10:16.936Z,55.28
2022-12-28T14:12:44.129Z,58.58
2022-12-28T14:15:11.991Z,51.65
2022-12-28T14:17:38.962Z,61.17
2022-12-28T14:20:06.521Z,45.88
2022-12-28T14:22:37.756Z,45.60
2022-12-28T14:25:22.743Z,50.42
2022-12-28T14:27:59.281Z,63.53
2022-12-28T14:30:36.363Z,50.65
2022-12-28T14:33:15.187Z,49.03
2022-12-28T14:35:51.242Z,43.67
2022-12-28T14:38:25.525Z,54.50
2022-12-28T14:40:56.797Z,52.10
2022-12-28T14:43:28.373Z,43.03
2022-12-28T14:46:05.249Z,37.85
2022-12-28T14:48:40.357Z,43.70
2022-12-28T14:51:17.441Z,42.78
2022-12-28T14:53:45.296Z,43.22
2022-12-28T14:56:17.761Z,55.45
2022-12-28T14:58:51.003Z,57.20
2022-12-28T15:01:18.382Z,51.70
2022-12-28T15:03:50.040Z,74.68
2022-12-28T15:06:16.900Z,82.32
2022-12-28T15:08:47.928Z,83.07
2022-12-28T15:11:14.777Z,96.20
2022-12-28T15:13:41.623Z,89.13
2022-12-28T15:16:11.037Z,60.67
2022-12-28T15:18:38.750Z,70.60
2022-12-28T15:21:05.771Z,80.38
2022-12-28T15:23:33.469Z,72.22
2022-12-28T15:26:05.305Z,71.43
2022-12-28T15:28:32.042Z,71.63
2022-12-28T15:30:58.852Z,67.72
2022-12-28T15:33:25.723Z,74.07
2022-12-28T15:35:52.477Z,71.78
2022-12-28T15:38:19.223Z,69.97
2022-12-28T15:40:47.167Z,76.95
2022-12-28T15:43:13.973Z,68.28
2022-12-28T15:45:40.727Z,64.25
2022-12-28T15:48:07.667Z,72.53
2022-12-28T15:50:35.248Z,138.30
2022-12-28T15:53:02.019Z,74.95
2022-12-28T15:55:28.834Z,76.82
2022-12-28T15:57:55.866Z,76.63
2022-12-28T16:00:22.733Z,81.65
2022-12-28T16:02:49.615Z,90.72
2022-12-28T16:05:16.629Z,86.78
2022-12-28T16:07:43.430Z,84.88
2022-12-28T16:10:10.389Z,78.88
2022-12-28T16:12:37.182Z,101.53
2022-12-28T16:15:04.210Z,104.05
2022-12-28T16:17:31.025Z,119.22
2022-12-28T16:19:57.867Z,111.28
2022-12-28T16:22:24.630Z,104.82
2022-12-28T16:24:51.490Z,103.82
2022-12-28T16:27:18.517Z,115.80
2022-12-28T16:29:46.293Z,100.80
2022-12-28T16:32:13.074Z,96.55
2022-12-28T16:34:40.064Z,95.13
2022-12-28T16:37:06.964Z,91.38
2022-12-28T16:39:33.749Z,84.78
2022-12-28T16:42:00.529Z,87.50
2022-12-28T16:44:27.850Z,83.28
2022-12-28T16:46:58.173Z,87.15
2022-12-28T16:49:26.045Z,81.40
2022-12-28T16:51:52.873Z,79.00
2022-12-28T16:54:21.810Z,95.72
2022-12-28T16:56:48.890Z,93.50
2022-12-28T16:59:16.827Z,104.45
2022-12-28T17:01:44.461Z,92.88
2022-12-28T17:04:11.803Z,88.20
2022-12-28T17:06:40.006Z,80.55
2022-12-28T17:09:06.817Z,84.28
2022-12-28T17:11:33.640Z,82.00
2022-12-28T17:14:04.911Z,82.82
2022-12-28T17:16:32.189Z,78.60
2022-12-28T17:19:00.284Z,96.18
2022-12-28T17:21:30.888Z,144.02
2022-12-28T17:23:57.825Z,210.35
2022-12-28T17:26:24.935Z,207.27
2022-12-28T17:28:51.802Z,220.27
2022-12-28T17:31:20.120Z,201.35
2022-12-28T17:33:47.993Z,203.18
2022-12-28T17:36:14.809Z,112.27
2022-12-28T17:38:41.972Z,117.80
2022-12-28T17:41:12.478Z,92.90
2022-12-28T17:43:39.396Z,84.18
2022-12-28T17:46:06.269Z,86.45
2022-12-28T17:48:33.150Z,78.30
2022-12-28T17:51:00.250Z,85.75
2022-12-28T17:53:27.054Z,76.97
2022-12-28T17:55:53.808Z,73.82
2022-12-28T17:58:20.626Z,81.72
2022-12-28T18:00:47.739Z,74.10
2022-12-28T18:03:14.643Z,86.50
2022-12-28T18:05:41.444Z,73.88
2022-12-28T18:08:08.489Z,73.40
2022-12-28T18:10:35.263Z,72.73
2022-12-28T18:13:02.062Z,81.03
2022-12-28T18:15:33.057Z,74.60
2022-12-28T18:18:00.853Z,81.83
2022-12-28T18:20:27.987Z,85.80
2022-12-28T18:22:54.790Z,93.93
2022-12-28T18:25:21.632Z,95.23
2022-12-28T18:27:48.447Z,86.33
2022-12-28T18:30:15.524Z,93.70
2022-12-28T18:32:42.357Z,91.90
2022-12-28T18:35:09.765Z,105.77
2022-12-28T18:37:36.558Z,133.87
2022-12-28T18:40:03.622Z,92.80
2022-12-28T18:42:30.439Z,79.03
2022-12-28T18:44:58.123Z,75.53
2022-12-28T18:47:24.971Z,89.97
2022-12-28T18:49:51.800Z,109.23
2022-12-28T18:52:18.576Z,113.87
2022-12-28T18:54:45.355Z,81.10
2022-12-28T18:57:12.191Z,77.83
2022-12-28T18:59:38.953Z,78.43
2022-12-28T19:02:07.306Z,69.93
2022-12-28T19:04:35.292Z,77.67
2022-12-28T19:07:02.099Z,67.13
2022-12-28T19:09:28.873Z,73.10
2022-12-28T19:11:55.777Z,78.83
2022-12-28T19:14:22.633Z,85.77
2022-12-28T19:16:49.416Z,82.93
2022-12-28T19:19:17.617Z,87.60
2022-12-28T19:21:44.793Z,86.20
2022-12-28T19:24:16.155Z,88.73
2022-12-28T19:26:44.310Z,78.97
2022-12-28T19:29:12.020Z,90.30
2022-12-28T19:31:38.829Z,92.87
2022-12-28T19:34:05.597Z,85.97
2022-12-28T19:36:32.499Z,107.33
2022-12-28T19:38:59.258Z,114.30
2022-12-28T19:41:26.113Z,107.67
2022-12-28T19:43:53.201Z,112.73
2022-12-28T19:46:21.726Z,108.80
2022-12-28T19:48:48.645Z,121.75
2022-12-28T19:51:15.585Z,110.33
2022-12-28T19:53:42.409Z,91.78
2022-12-28T19:56:13.323Z,91.07
2022-12-28T19:58:40.260Z,108.35
2022-12-28T20:01:17.668Z,97.38
2022-12-28T20:03:44.766Z,79.40
2022-12-28T20:06:22.912Z,98.53
2022-12-28T20:08:51.088Z,70.38
2022-12-28T20:11:18.814Z,77.00
2022-12-28T20:13:52.972Z,82.47
2022-12-28T20:16:19.974Z,79.70
2022-12-28T20:18:50.655Z,67.55
2022-12-28T20:21:19.673Z,60.35
2022-12-28T20:23:50.764Z,69.60
2022-12-28T20:26:18.734Z,55.90
2022-12-28T20:28:45.917Z,50.40
2022-12-28T20:31:13.878Z,51.73
2022-12-28T20:33:40.901Z,68.53
2022-12-28T20:36:12.471Z,68.70
2022-12-28T20:38:39.364Z,73.63
2022-12-28T20:41:07.273Z,56.30
2022-12-28T20:43:34.854Z,67.13
2022-12-28T20:46:01.731Z,69.87
2022-12-28T20:48:28.695Z,120.20
2022-12-28T20:50:58.165Z,67.43
2022-12-28T20:53:25.351Z,102.47
2022-12-28T20:55:52.364Z,52.00
2022-12-28T20:58:20.177Z,47.53
2022-12-28T21:00:47.094Z,47.03
2022-12-28T21:03:14.048Z,49.20
2022-12-28T21:05:40.832Z,46.00
2022-12-28T21:08:07.626Z,50.33
2022-12-28T21:10:34.430Z,56.67
2022-12-28T21:13:01.216Z,60.33
2022-12-28T21:15:28.179Z,52.63
2022-12-28T21:17:54.956Z,47.87
2022-12-28T21:20:21.731Z,55.67
2022-12-28T21:22:48.498Z,48.27
2022-12-28T21:25:15.538Z,56.10
2022-12-28T21:27:42.393Z,58.90
2022-12-28T21:30:09.807Z,63.93
2022-12-28T21:32:36.506Z,55.27
2022-12-28T21:35:03.666Z,87.60
2022-12-28T21:37:36.270Z,98.30
2022-12-28T21:40:07.868Z,98.23
2022-12-28T21:42:35.431Z,103.80
2022-12-28T21:45:02.838Z,131.10
2022-12-28T21:47:29.655Z,162.87
2022-12-28T21:49:56.421Z,180.23
2022-12-28T21:52:23.238Z,179.07
2022-12-28T21:54:50.074Z,163.87
2022-12-28T21:57:16.916Z,158.80
2022-12-28T21:59:43.698Z,159.30
2022-12-28T22:02:36.373Z,147.00
2022-12-28T22:05:21.829Z,144.63
2022-12-28T22:07:49.388Z,121.37
2022-12-28T22:10:34.837Z,127.07
2022-12-28T22:13:01.666Z,120.70
2022-12-28T22:15:46.879Z,118.87
2022-12-28T22:18:30.075Z,122.03
2022-12-28T22:21:03.288Z,115.53
2022-12-28T22:23:34.591Z,129.73
2022-12-28T22:26:02.117Z,115.37
2022-12-28T22:28:28.960Z,108.97
2022-12-28T22:30:56.050Z,101.37
2022-12-28T22:33:22.896Z,123.07
2022-12-28T22:35:49.678Z,115.27
2022-12-28T22:38:16.455Z,103.63
2022-12-28T22:40:43.210Z,109.53
2022-12-28T22:43:10.038Z,123.20
2022-12-28T22:45:36.857Z,121.50
2022-12-28T22:48:03.779Z,129.63
2022-12-28T22:50:30.581Z,126.10
2022-12-28T22:52:58.281Z,145.63
2022-12-28T22:55:25.201Z,140.87
2022-12-28T22:57:52.003Z,141.80
2022-12-28T23:00:19.109Z,153.07
2022-12-28T23:02:46.261Z,147.60
2022-12-28T23:05:13.234Z,123.97
2022-12-28T23:07:40.040Z,129.07
2022-12-28T23:10:08.027Z,132.43
2022-12-28T23:12:34.980Z,139.40
2022-12-28T23:15:18.881Z,146.77
2022-12-28T23:17:47.437Z,144.30
2022-12-28T23:20:33.031Z,151.50
2022-12-28T23:23:18.553Z,152.07
2022-12-28T23:26:03.980Z,153.33
2022-12-28T23:28:30.885Z,161.10
2022-12-28T23:30:58.688Z,160.43
2022-12-28T23:33:25.492Z,173.43
2022-12-28T23:35:52.336Z,161.20
2022-12-28T23:38:19.171Z,156.77
2022-12-28T23:40:45.928Z,162.40
2022-12-28T23:43:12.766Z,155.97
2022-12-28T23:45:39.494Z,176.17
2022-12-28T23:48:06.376Z,189.17
2022-12-28T23:50:33.282Z,193.60
2022-12-28T23:53:00.159Z,197.23
2022-12-28T23:55:26.981Z,195.13
2022-12-28T23:57:53.776Z,205.67
